Time;durP1;ratioP1;P1;durP2;ratioP2;P2;SDS_P1;SDS_P2;PMS_P1;PMS_P2;Temp;Humidity;BMP_temperature;BMP_pressure;BME280_temperature;BME280_humidity;BME280_pressure;Samples;Min_cycle;Max_cycle;Signal;HPM_P1;HPM_P2
2022/07/06 00:01:33;;;;;;;14.18;7.38;;;29.30;1.00;;;;;;5114715;28;20019;-66
2022/07/06 00:04:01;;;;;;;7.55;6.35;;;29.20;1.00;;;;;;5114155;28;20031;-66
2022/07/06 00:06:27;;;;;;;8.50;5.82;;;29.30;1.00;;;;;;5114218;28;20035;-66
2022/07/06 00:08:53;;;;;;;6.95;6.35;;;29.30;1.00;;;;;;5100334;28;20028;-66
2022/07/06 00:11:19;;;;;;;7.78;4.95;;;29.20;1.00;;;;;;5113062;28;20016;-66
2022/07/06 00:13:44;;;;;;;7.65;5.25;;;29.30;1.00;;;;;;5114664;28;20024;-66
2022/07/06 00:16:10;;;;;;;8.05;5.53;;;29.20;1.00;;;;;;5113980;28;20657;-66
2022/07/06 00:18:36;;;;;;;8.40;6.30;;;29.20;1.00;;;;;;5114370;28;20023;-65
2022/07/06 00:21:02;;;;;;;7.53;4.85;;;29.10;1.00;;;;;;5113959;28;20038;-67
2022/07/06 00:23:28;;;;;;;8.25;5.05;;;29.20;1.00;;;;;;5114626;28;20063;-67
2022/07/06 00:25:53;;;;;;;7.88;5.03;;;29.20;1.00;;;;;;5113882;27;20085;-67
2022/07/06 00:28:19;;;;;;;5.63;4.63;;;29.20;1.00;;;;;;5114586;28;20028;-66
2022/07/06 00:30:45;;;;;;;5.78;5.20;;;29.10;1.00;;;;;;5113335;28;20022;-67
2022/07/06 00:33:10;;;;;;;8.65;5.43;;;28.90;1.00;;;;;;5114656;28;20031;-66
2022/07/06 00:35:36;;;;;;;12.52;5.50;;;29.00;1.00;;;;;;5112889;28;20035;-66
2022/07/06 00:38:03;;;;;;;8.05;5.50;;;28.90;1.00;;;;;;5112208;27;20417;-66
2022/07/06 00:40:29;;;;;;;5.15;4.65;;;28.90;1.00;;;;;;5113932;28;20081;-66
2022/07/06 00:42:56;;;;;;;5.05;4.45;;;28.90;1.00;;;;;;5114313;28;20062;-66
2022/07/06 00:45:22;;;;;;;4.82;4.35;;;29.00;1.00;;;;;;5113481;28;20028;-67
2022/07/06 00:47:47;;;;;;;7.47;4.47;;;28.90;1.00;;;;;;5114451;28;20586;-70
2022/07/06 00:50:18;;;;;;;9.32;4.82;;;28.80;1.00;;;;;;5113066;28;20035;-67
2022/07/06 00:52:52;;;;;;;8.50;5.40;;;28.70;1.00;;;;;;5113587;28;20031;-67
2022/07/06 00:55:22;;;;;;;5.40;4.25;;;28.90;1.00;;;;;;5101587;28;20039;-68
2022/07/06 00:57:48;;;;;;;6.70;4.63;;;29.00;1.00;;;;;;5113776;28;20015;-68
2022/07/06 01:00:16;;;;;;;7.57;3.78;;;28.90;1.00;;;;;;5113299;28;20059;-63
2022/07/06 01:02:43;;;;;;;6.70;4.00;;;29.00;1.00;;;;;;5113871;28;20019;-69
2022/07/06 01:05:11;;;;;;;4.75;4.00;;;28.90;1.00;;;;;;5112847;27;20036;-69
2022/07/06 01:07:39;;;;;;;5.45;3.85;;;28.80;1.00;;;;;;5113871;28;20103;-69
2022/07/06 01:10:06;;;;;;;6.85;3.75;;;28.80;1.00;;;;;;5112575;28;20015;-69
2022/07/06 01:12:34;;;;;;;5.80;3.95;;;28.80;1.00;;;;;;5112748;28;20077;-69
2022/07/06 01:15:00;;;;;;;5.10;3.92;;;28.80;1.00;;;;;;5110535;28;20126;-69
2022/07/06 01:17:26;;;;;;;6.32;3.05;;;28.60;1.00;;;;;;5112229;28;20350;-69
2022/07/06 01:19:51;;;;;;;3.58;3.13;;;28.70;1.00;;;;;;5112731;28;20476;-69
2022/07/06 01:22:18;;;;;;;5.97;3.58;;;28.70;1.00;;;;;;5129441;27;20111;-68
2022/07/06 01:24:43;;;;;;;5.70;3.33;;;28.50;1.00;;;;;;5113128;27;20055;-69
2022/07/06 01:27:09;;;;;;;6.55;3.33;;;28.60;1.00;;;;;;5113213;28;20050;-69
2022/07/06 01:29:35;;;;;;;4.03;3.38;;;28.60;1.00;;;;;;5112122;27;20035;-69
2022/07/06 01:32:01;;;;;;;3.85;3.38;;;28.60;1.00;;;;;;5092996;28;20057;-69
2022/07/06 01:34:27;;;;;;;6.50;3.40;;;28.60;1.00;;;;;;5113444;28;20046;-69
2022/07/06 01:36:53;;;;;;;5.15;3.55;;;28.60;1.00;;;;;;5111052;28;20158;-69
2022/07/06 01:39:19;;;;;;;6.95;3.40;;;28.60;1.00;;;;;;5128695;27;20074;-69
2022/07/06 01:41:45;;;;;;;4.10;2.75;;;28.60;1.00;;;;;;5112440;28;20481;-68
2022/07/06 01:44:11;;;;;;;6.70;3.78;;;28.60;1.00;;;;;;5113007;28;20028;-69
2022/07/06 01:46:37;;;;;;;5.13;3.00;;;28.60;1.00;;;;;;5112974;28;20028;-70
2022/07/06 01:49:04;;;;;;;4.82;3.25;;;28.60;1.00;;;;;;5112682;28;20448;-70
2022/07/06 01:51:29;;;;;;;4.53;3.47;;;28.50;1.00;;;;;;5094612;28;20146;-69
2022/07/06 01:53:55;;;;;;;4.35;3.15;;;28.50;1.00;;;;;;5112118;28;20071;-69
2022/07/06 01:56:21;;;;;;;3.13;2.83;;;28.40;1.00;;;;;;5112527;27;20024;-69
2022/07/06 01:58:47;;;;;;;4.60;3.10;;;28.40;1.00;;;;;;5112292;28;20112;-69
2022/07/06 02:01:17;;;;;;;4.55;3.00;;;28.40;1.00;;;;;;5113176;28;20060;-69
2022/07/06 02:03:43;;;;;;;4.70;3.10;;;28.50;1.00;;;;;;5093084;28;20333;-69
2022/07/06 02:06:11;;;;;;;3.50;3.10;;;28.40;1.00;;;;;;5112754;28;20468;-69
2022/07/06 02:08:37;;;;;;;4.57;2.85;;;28.40;1.00;;;;;;5112294;28;20480;-69
2022/07/06 02:11:04;;;;;;;3.65;3.05;;;28.20;1.00;;;;;;5112746;28;20020;-69
2022/07/06 02:13:29;;;;;;;6.97;3.40;;;28.20;1.00;;;;;;5093744;28;20361;-69
2022/07/06 02:15:55;;;;;;;3.97;3.10;;;28.20;1.00;;;;;;5098305;28;20093;-69
2022/07/06 02:18:21;;;;;;;4.20;2.60;;;28.20;1.00;;;;;;5093698;28;20036;-69
2022/07/06 02:20:46;;;;;;;3.30;2.60;;;28.30;1.00;;;;;;5111869;28;20369;-69
2022/07/06 02:23:12;;;;;;;5.53;2.65;;;28.30;1.00;;;;;;5092368;28;20031;-69
2022/07/06 02:25:38;;;;;;;5.05;2.85;;;28.30;1.00;;;;;;5095093;28;20043;-69
2022/07/06 02:28:04;;;;;;;3.28;2.90;;;28.20;1.00;;;;;;5103888;28;20022;-69
2022/07/06 02:30:29;;;;;;;5.97;2.70;;;28.20;1.00;;;;;;5112443;28;20020;-69
2022/07/06 02:32:55;;;;;;;6.43;3.15;;;28.20;1.00;;;;;;5112094;28;20027;-69
2022/07/06 02:35:20;;;;;;;5.15;2.60;;;28.10;1.00;;;;;;5076561;28;20388;-69
2022/07/06 02:37:46;;;;;;;3.00;2.70;;;28.10;1.00;;;;;;5098915;28;20051;-68
2022/07/06 02:40:12;;;;;;;5.15;2.50;;;28.00;1.00;;;;;;5112412;28;20477;-69
2022/07/06 02:42:38;;;;;;;3.10;2.65;;;28.10;1.00;;;;;;5111588;28;20089;-69
2022/07/06 02:45:04;;;;;;;3.50;2.83;;;27.90;1.00;;;;;;5112467;28;20016;-69
2022/07/06 02:47:29;;;;;;;5.03;2.53;;;28.00;1.00;;;;;;5111804;28;20381;-69
2022/07/06 02:49:55;;;;;;;3.67;2.63;;;28.00;1.00;;;;;;5112452;28;20015;-69
2022/07/06 02:52:21;;;;;;;4.68;2.88;;;28.00;1.00;;;;;;5110911;28;20039;-69
2022/07/06 02:54:46;;;;;;;7.03;2.83;;;28.00;1.00;;;;;;5092727;28;20100;-69
2022/07/06 02:57:12;;;;;;;3.35;2.83;;;28.00;1.00;;;;;;5112328;28;20030;-69
2022/07/06 02:59:38;;;;;;;2.33;2.22;;;28.00;1.00;;;;;;5111762;28;20031;-69
2022/07/06 03:02:07;;;;;;;5.03;3.20;;;28.00;1.00;;;;;;5112322;28;20020;-69
2022/07/06 03:04:33;;;;;;;3.38;2.80;;;27.70;1.00;;;;;;5092908;28;20032;-68
2022/07/06 03:06:59;;;;;;;4.53;2.95;;;27.70;1.00;;;;;;5093699;28;20444;-68
2022/07/06 03:09:25;;;;;;;6.05;2.95;;;27.60;1.00;;;;;;5111214;28;20093;-68
2022/07/06 03:11:51;;;;;;;4.28;2.38;;;27.60;1.00;;;;;;5111992;28;20027;-67
2022/07/06 03:14:17;;;;;;;3.63;2.78;;;27.50;1.00;;;;;;5111325;28;20036;-68
2022/07/06 03:16:42;;;;;;;2.88;2.40;;;27.40;1.00;;;;;;5112023;28;20032;-69
2022/07/06 03:19:08;;;;;;;3.28;2.22;;;27.20;1.00;;;;;;5110238;28;20031;-68
2022/07/06 03:21:34;;;;;;;2.55;2.05;;;27.20;1.00;;;;;;5111265;28;20469;-69
2022/07/06 03:23:59;;;;;;;3.83;2.88;;;27.30;1.00;;;;;;5110848;28;20050;-68
2022/07/06 03:26:25;;;;;;;2.38;2.10;;;27.20;1.00;;;;;;5111889;28;20020;-68
2022/07/06 03:28:51;;;;;;;2.10;2.00;;;27.10;1.00;;;;;;5110685;28;20034;-68
2022/07/06 03:31:17;;;;;;;2.47;2.28;;;27.20;1.00;;;;;;5111275;28;20030;-68
2022/07/06 03:33:42;;;;;;;2.30;2.10;;;27.20;1.00;;;;;;5110666;28;20023;-68
2022/07/06 03:36:08;;;;;;;4.78;2.30;;;27.20;1.00;;;;;;5111052;28;20059;-68
2022/07/06 03:38:35;;;;;;;2.35;1.98;;;27.10;1.00;;;;;;5095034;28;20032;-68
2022/07/06 03:41:01;;;;;;;3.30;2.47;;;27.20;1.00;;;;;;5114872;28;20035;-68
2022/07/06 03:43:26;;;;;;;2.75;2.20;;;27.20;1.00;;;;;;5114697;28;20028;-68
2022/07/06 03:45:52;;;;;;;3.55;2.20;;;27.20;1.00;;;;;;5130975;27;20023;-68
2022/07/06 03:48:18;;;;;;;2.22;1.75;;;27.20;1.00;;;;;;5114903;28;20058;-68
2022/07/06 03:50:43;;;;;;;2.38;2.13;;;27.10;1.00;;;;;;5115349;28;20016;-68
2022/07/06 03:53:09;;;;;;;2.38;1.70;;;27.10;1.00;;;;;;5114795;28;20430;-68
2022/07/06 03:55:35;;;;;;;9.82;2.40;;;27.20;1.00;;;;;;5115150;28;20048;-68
2022/07/06 03:58:00;;;;;;;4.50;2.45;;;27.10;1.00;;;;;;5114621;28;20020;-68
2022/07/06 04:00:26;;;;;;;2.95;2.33;;;27.10;1.00;;;;;;5115356;28;20373;-68
2022/07/06 04:02:51;;;;;;;3.28;2.00;;;27.00;1.00;;;;;;5114260;28;20008;-68
2022/07/06 04:05:21;;;;;;;4.50;2.00;;;26.90;1.00;;;;;;5115367;28;20056;-68
2022/07/06 04:07:49;;;;;;;3.00;2.22;;;26.80;1.00;;;;;;5114198;28;20373;-68
2022/07/06 04:10:16;;;;;;;3.22;1.70;;;26.80;1.00;;;;;;5115001;28;20341;-68
2022/07/06 04:12:42;;;;;;;1.88;1.77;;;26.90;1.00;;;;;;5114250;28;20024;-68
2022/07/06 04:15:09;;;;;;;2.58;1.95;;;26.70;1.00;;;;;;5114424;28;20036;-68
2022/07/06 04:17:52;;;;;;;2.03;1.67;;;26.70;1.00;;;;;;5113408;28;20334;-67
2022/07/06 04:20:22;;;;;;;2.25;1.90;;;26.70;1.00;;;;;;5105488;27;20453;-68
2022/07/06 04:22:48;;;;;;;2.38;1.88;;;26.90;1.00;;;;;;5113672;28;20162;-68
2022/07/06 04:25:14;;;;;;;2.97;1.90;;;26.70;1.00;;;;;;5114564;28;20035;-68
2022/07/06 04:27:40;;;;;;;5.00;2.00;;;26.70;1.00;;;;;;5114932;27;20030;-68
2022/07/06 04:30:07;;;;;;;3.08;1.85;;;26.60;1.00;;;;;;5113955;27;20135;-67
2022/07/06 04:32:32;;;;;;;3.47;1.90;;;26.60;1.00;;;;;;5114539;28;20091;-68
2022/07/06 04:34:58;;;;;;;5.95;2.17;;;26.60;1.00;;;;;;5113006;27;20130;-68
2022/07/06 04:37:24;;;;;;;2.92;1.55;;;26.70;1.00;;;;;;5114360;28;20020;-68
2022/07/06 04:39:50;;;;;;;5.10;2.00;;;26.50;1.00;;;;;;5113571;28;20024;-68
2022/07/06 04:42:15;;;;;;;3.53;2.00;;;26.50;1.00;;;;;;5114107;28;20496;-68
2022/07/06 04:44:41;;;;;;;2.17;1.80;;;26.40;1.00;;;;;;5095312;28;20023;-69
2022/07/06 04:47:07;;;;;;;1.98;1.65;;;26.40;1.00;;;;;;5113342;27;20023;-69
2022/07/06 04:49:32;;;;;;;2.22;2.03;;;26.40;1.00;;;;;;5113370;28;20023;-69
2022/07/06 04:51:58;;;;;;;1.77;1.67;;;26.40;1.00;;;;;;5113925;28;20031;-69
2022/07/06 04:54:23;;;;;;;3.05;1.80;;;26.50;1.00;;;;;;5112554;28;20369;-68
2022/07/06 04:56:49;;;;;;;2.15;1.85;;;26.60;1.00;;;;;;5095510;28;20045;-68
2022/07/06 04:59:15;;;;;;;1.90;1.80;;;26.50;1.00;;;;;;5113200;27;20384;-68
2022/07/06 05:01:40;;;;;;;3.03;1.80;;;26.30;1.00;;;;;;5113268;28;20058;-68
2022/07/06 05:04:07;;;;;;;2.53;1.67;;;26.40;1.00;;;;;;5127453;27;20038;-69
2022/07/06 05:06:33;;;;;;;3.67;1.75;;;26.40;1.00;;;;;;5113911;28;20538;-68
2022/07/06 05:09:01;;;;;;;1.70;1.60;;;26.50;1.00;;;;;;5113128;28;20023;-68
2022/07/06 05:11:27;;;;;;;3.42;2.00;;;26.40;1.00;;;;;;5113862;28;20024;-68
2022/07/06 05:13:54;;;;;;;4.13;2.05;;;26.50;1.00;;;;;;5094142;28;20043;-68
2022/07/06 05:16:23;;;;;;;2.83;2.08;;;26.40;1.00;;;;;;5113353;28;20036;-68
2022/07/06 05:18:49;;;;;;;2.08;1.88;;;26.40;1.00;;;;;;5111506;28;20023;-68
2022/07/06 05:21:14;;;;;;;2.30;2.10;;;26.30;1.00;;;;;;5113218;28;20031;-68
2022/07/06 05:23:40;;;;;;;2.60;1.80;;;26.30;1.00;;;;;;5109780;28;20043;-68
2022/07/06 05:26:06;;;;;;;4.10;2.20;;;26.40;1.00;;;;;;5109652;28;20365;-68
2022/07/06 05:28:32;;;;;;;2.78;1.60;;;26.30;1.00;;;;;;5104661;28;20028;-67
2022/07/06 05:30:58;;;;;;;2.15;1.70;;;26.40;1.00;;;;;;5111874;28;20031;-67
2022/07/06 05:33:24;;;;;;;4.15;1.95;;;26.40;1.00;;;;;;5111386;28;20036;-67
2022/07/06 05:35:50;;;;;;;2.35;1.80;;;26.40;1.00;;;;;;5109108;28;20036;-67
2022/07/06 05:38:16;;;;;;;5.15;2.22;;;26.30;1.00;;;;;;5101656;28;20057;-67
2022/07/06 05:40:41;;;;;;;3.50;1.98;;;26.10;1.00;;;;;;5104720;28;20020;-68
2022/07/06 05:43:07;;;;;;;2.53;1.77;;;26.10;1.00;;;;;;5106766;28;20030;-68
2022/07/06 05:45:33;;;;;;;4.18;2.10;;;26.00;1.00;;;;;;5112229;28;20027;-66
2022/07/06 05:50:42;;;;;;;;;;;26.10;1.00;;;;;;5100026;28;20035;-68
2022/07/06 05:53:08;;;;;;;4.40;2.38;;;26.10;1.00;;;;;;5112922;28;20273;-67
2022/07/06 05:55:34;;;;;;;3.78;2.47;;;26.20;1.00;;;;;;5111310;28;20055;-67
2022/07/06 05:57:59;;;;;;;3.22;2.30;;;26.20;1.00;;;;;;5113025;28;20020;-68
2022/07/06 06:00:26;;;;;;;2.50;2.30;;;26.20;1.00;;;;;;5111554;28;20035;-67
2022/07/06 06:02:53;;;;;;;2.75;2.30;;;26.00;1.00;;;;;;5112953;28;20023;-69
2022/07/06 06:05:19;;;;;;;3.92;2.42;;;25.90;1.00;;;;;;5111987;28;20024;-69
2022/07/06 06:07:50;;;;;;;5.13;2.33;;;26.10;1.00;;;;;;5099027;28;20042;-71
2022/07/06 06:10:15;;;;;;;2.50;2.28;;;26.30;1.00;;;;;;5112358;28;20402;-69
2022/07/06 06:12:41;;;;;;;2.65;2.10;;;26.30;1.00;;;;;;5112771;28;20027;-68
2022/07/06 06:15:08;;;;;;;4.45;2.30;;;26.30;1.00;;;;;;5092300;28;20031;-68
2022/07/06 06:17:35;;;;;;;3.85;2.10;;;26.30;1.00;;;;;;5112094;28;20102;-68
2022/07/06 06:20:01;;;;;;;3.88;2.00;;;26.30;1.00;;;;;;5111194;28;20028;-68
2022/07/06 06:22:27;;;;;;;2.45;1.92;;;26.50;1.00;;;;;;5112453;28;20140;-68
2022/07/06 06:24:52;;;;;;;7.55;2.33;;;26.60;1.00;;;;;;5112009;28;20038;-69
2022/07/06 06:27:18;;;;;;;2.35;2.00;;;26.60;1.00;;;;;;5112876;28;20054;-68
2022/07/06 06:29:44;;;;;;;4.47;2.30;;;26.60;1.00;;;;;;5111787;28;20035;-68
2022/07/06 06:32:11;;;;;;;3.97;2.33;;;26.60;1.00;;;;;;5112626;28;20469;-69
2022/07/06 06:34:37;;;;;;;3.03;2.35;;;26.60;1.00;;;;;;5111869;28;20059;-68
2022/07/06 06:37:03;;;;;;;2.65;2.00;;;26.70;1.00;;;;;;5112534;28;20034;-69
2022/07/06 06:39:29;;;;;;;3.33;2.20;;;26.70;1.00;;;;;;5111213;28;20404;-68
2022/07/06 06:41:54;;;;;;;4.72;2.47;;;26.80;1.00;;;;;;5112412;28;20026;-69
2022/07/06 06:44:22;;;;;;;5.13;2.40;;;26.90;1.00;;;;;;5092771;28;20024;-68
2022/07/06 06:46:49;;;;;;;3.50;2.17;;;26.90;1.00;;;;;;5112373;28;20077;-69
2022/07/06 06:49:15;;;;;;;4.07;1.85;;;26.70;1.00;;;;;;5112971;28;20407;-68
2022/07/06 06:51:40;;;;;;;3.85;2.65;;;26.60;1.00;;;;;;5111984;28;20149;-68
2022/07/06 06:54:06;;;;;;;5.93;2.50;;;26.50;1.00;;;;;;5111190;28;20032;-69
2022/07/06 06:56:32;;;;;;;4.18;2.20;;;26.70;1.00;;;;;;5112353;28;20054;-68
2022/07/06 06:58:57;;;;;;;3.25;2.17;;;26.80;1.00;;;;;;5111683;28;20095;-68
2022/07/06 07:01:23;;;;;;;4.88;2.15;;;26.90;1.00;;;;;;5112264;28;20028;-68
2022/07/06 07:03:54;;;;;;;4.22;2.33;;;26.80;1.00;;;;;;5111285;28;20386;-68
2022/07/06 07:06:20;;;;;;;2.55;1.95;;;26.90;1.00;;;;;;5112053;28;20389;-68
2022/07/06 07:08:46;;;;;;;2.65;2.00;;;27.00;1.00;;;;;;5111410;28;20439;-67
2022/07/06 07:11:12;;;;;;;2.55;2.35;;;27.00;1.00;;;;;;5110550;28;20038;-68
2022/07/06 07:13:37;;;;;;;2.75;2.28;;;26.90;1.00;;;;;;5114298;28;20020;-68
2022/07/06 07:16:03;;;;;;;3.42;2.33;;;26.90;1.00;;;;;;5109470;28;20059;-67
2022/07/06 07:18:44;;;;;;;4.95;2.75;;;27.00;1.00;;;;;;5115703;28;20427;-69
2022/07/06 07:21:10;;;;;;;6.78;2.30;;;26.90;1.00;;;;;;5115311;28;20043;-68
2022/07/06 07:23:35;;;;;;;5.43;2.20;;;27.10;1.00;;;;;;5115346;28;20123;-68
2022/07/06 07:26:01;;;;;;;5.22;2.30;;;27.10;1.00;;;;;;5091587;28;20043;-68
2022/07/06 07:28:26;;;;;;;2.42;2.25;;;27.10;1.00;;;;;;5104321;28;20020;-68
2022/07/06 07:30:52;;;;;;;3.40;1.92;;;27.10;1.00;;;;;;5114427;28;20046;-68
2022/07/06 07:33:18;;;;;;;3.58;2.30;;;27.00;1.00;;;;;;5115023;28;20091;-68
2022/07/06 07:35:43;;;;;;;2.47;1.98;;;27.00;1.00;;;;;;5085035;28;20036;-67
2022/07/06 07:38:10;;;;;;;2.85;1.98;;;27.00;1.00;;;;;;5111344;28;20035;-67
2022/07/06 07:40:35;;;;;;;5.25;2.50;;;27.00;1.00;;;;;;5113195;28;20114;-68
2022/07/06 07:43:01;;;;;;;2.47;2.20;;;27.20;1.00;;;;;;5103295;28;20587;-67
2022/07/06 07:45:27;;;;;;;7.82;2.50;;;27.20;1.00;;;;;;5092063;28;20028;-66
2022/07/06 07:47:53;;;;;;;7.32;2.50;;;27.20;1.00;;;;;;5096844;28;20031;-66
2022/07/06 07:50:18;;;;;;;3.22;2.72;;;27.20;1.00;;;;;;5113848;27;20503;-68
2022/07/06 07:52:44;;;;;;;4.38;3.35;;;27.30;1.00;;;;;;5115066;28;20024;-68
2022/07/06 07:55:10;;;;;;;3.13;2.67;;;27.30;1.00;;;;;;5113598;27;20031;-68
2022/07/06 07:57:36;;;;;;;3.65;2.33;;;27.30;1.00;;;;;;5114976;28;20338;-69
2022/07/06 08:00:03;;;;;;;8.50;2.83;;;27.40;1.00;;;;;;5114163;28;20035;-68
2022/07/06 08:02:29;;;;;;;3.05;2.25;;;27.40;1.00;;;;;;5114841;28;20102;-68
2022/07/06 08:04:55;;;;;;;4.10;2.70;;;27.50;1.00;;;;;;5114897;27;20047;-66
2022/07/06 08:07:20;;;;;;;5.03;2.50;;;27.50;1.00;;;;;;5114961;28;20102;-66
2022/07/06 08:09:46;;;;;;;4.57;2.88;;;27.50;1.00;;;;;;5112666;27;20064;-67
2022/07/06 08:12:12;;;;;;;4.00;3.20;;;27.60;1.00;;;;;;5114931;28;20023;-67
2022/07/06 08:14:37;;;;;;;3.53;2.95;;;27.50;1.00;;;;;;5114067;27;20126;-67
2022/07/06 08:17:04;;;;;;;3.10;2.45;;;27.60;1.00;;;;;;5114668;28;20016;-67
2022/07/06 08:19:30;;;;;;;3.45;2.70;;;27.70;1.00;;;;;;5113692;28;20088;-67
2022/07/06 08:21:57;;;;;;;2.75;2.28;;;27.60;1.00;;;;;;5101724;28;20398;-66
2022/07/06 08:24:22;;;;;;;2.80;2.60;;;27.60;1.00;;;;;;5074404;28;20148;-67
2022/07/06 08:26:48;;;;;;;2.85;2.22;;;27.70;1.00;;;;;;5073877;28;20087;-66
2022/07/06 08:29:13;;;;;;;5.43;3.03;;;27.80;1.00;;;;;;5067679;28;20040;-67
2022/07/06 08:31:39;;;;;;;2.90;2.70;;;27.80;1.00;;;;;;5073788;28;20029;-67
2022/07/06 08:34:05;;;;;;;3.33;2.83;;;27.90;1.00;;;;;;5072218;28;20051;-67
2022/07/06 08:36:31;;;;;;;3.58;2.90;;;28.00;1.00;;;;;;5071023;28;20386;-67
2022/07/06 08:38:57;;;;;;;3.22;2.42;;;27.90;1.00;;;;;;5072987;28;20031;-66
2022/07/06 08:41:25;;;;;;;2.63;2.20;;;28.00;1.00;;;;;;5072699;28;20520;-66
2022/07/06 08:43:51;;;;;;;2.97;2.03;;;28.00;1.00;;;;;;5072470;28;20027;-65
2022/07/06 08:46:19;;;;;;;5.38;2.05;;;28.10;1.00;;;;;;5070942;28;20020;-67
2022/07/06 08:48:45;;;;;;;3.90;2.42;;;28.10;1.00;;;;;;5071658;28;20024;-68
2022/07/06 08:51:13;;;;;;;3.97;2.35;;;28.20;1.00;;;;;;5070087;28;20123;-68
2022/07/06 08:53:43;;;;;;;5.03;2.20;;;28.10;1.00;;;;;;5069533;28;20043;-68
2022/07/06 08:56:09;;;;;;;2.35;1.83;;;28.20;1.00;;;;;;5072592;28;20482;-69
2022/07/06 08:58:36;;;;;;;6.07;2.88;;;28.20;1.00;;;;;;5073302;28;20021;-69
2022/07/06 09:01:02;;;;;;;5.78;3.90;;;28.40;1.00;;;;;;5072265;28;20021;-69
2022/07/06 09:03:28;;;;;;;5.60;3.17;;;28.30;1.00;;;;;;5072987;28;20062;-69
2022/07/06 09:06:01;;;;;;;6.75;2.85;;;28.40;1.00;;;;;;5071437;28;20406;-68
2022/07/06 09:08:28;;;;;;;3.33;2.50;;;28.40;1.00;;;;;;5072357;28;20097;-68
2022/07/06 09:10:54;;;;;;;5.40;2.50;;;28.50;1.00;;;;;;5072357;28;20024;-69
2022/07/06 09:13:19;;;;;;;2.42;2.17;;;28.60;1.00;;;;;;5072728;28;20028;-68
2022/07/06 09:15:45;;;;;;;3.00;2.40;;;28.60;1.00;;;;;;5072370;28;20028;-69
2022/07/06 09:18:11;;;;;;;3.33;2.50;;;28.60;1.00;;;;;;5072859;28;20104;-69
2022/07/06 09:20:36;;;;;;;5.00;4.70;;;28.60;1.00;;;;;;5071817;28;20036;-68
2022/07/06 09:23:06;;;;;;;2.38;2.08;;;28.70;1.00;;;;;;5078039;28;20047;-68
2022/07/06 09:25:33;;;;;;;6.30;2.83;;;28.70;1.00;;;;;;5112719;27;20034;-69
2022/07/06 09:27:59;;;;;;;3.08;2.63;;;28.90;1.00;;;;;;5113502;28;20137;-69
2022/07/06 09:30:26;;;;;;;2.30;2.10;;;28.90;1.00;;;;;;5094037;28;20032;-69
2022/07/06 09:32:54;;;;;;;3.30;1.95;;;29.00;1.00;;;;;;5113176;28;20012;-69
2022/07/06 09:35:21;;;;;;;2.20;2.00;;;29.00;1.00;;;;;;5111680;28;20093;-68
2022/07/06 09:37:51;;;;;;;3.50;2.45;;;29.10;1.00;;;;;;5113077;28;20019;-69
2022/07/06 09:40:18;;;;;;;3.33;2.42;;;29.10;1.00;;;;;;5111719;28;20062;-68
2022/07/06 09:42:44;;;;;;;2.15;1.90;;;29.10;1.00;;;;;;5091276;28;20016;-68
2022/07/06 09:45:10;;;;;;;2.00;1.90;;;29.10;1.00;;;;;;5107732;28;20030;-68
2022/07/06 09:47:37;;;;;;;2.22;1.77;;;29.20;1.00;;;;;;5112538;28;20024;-68
2022/07/06 09:50:05;;;;;;;3.67;2.28;;;29.20;1.00;;;;;;5093072;28;20411;-68
2022/07/06 09:52:34;;;;;;;6.32;2.08;;;29.30;1.00;;;;;;5112909;28;20103;-68
2022/07/06 09:54:59;;;;;;;4.10;1.70;;;29.30;1.00;;;;;;5111927;28;20044;-66
2022/07/06 09:57:25;;;;;;;3.15;1.98;;;29.30;1.00;;;;;;5110494;28;20177;-68
2022/07/06 09:59:52;;;;;;;6.10;2.13;;;29.30;1.00;;;;;;5112002;28;20435;-67
2022/07/06 10:02:20;;;;;;;2.05;1.95;;;30.00;1.00;;;;;;5111056;28;20020;-67
2022/07/06 10:04:48;;;;;;;2.50;1.67;;;30.60;1.00;;;;;;5112719;28;20035;-67
2022/07/06 10:07:14;;;;;;;3.45;2.40;;;30.80;1.00;;;;;;5111190;27;20065;-67
2022/07/06 10:09:40;;;;;;;4.18;2.05;;;31.10;1.00;;;;;;5112490;28;20034;-67
2022/07/06 10:12:12;;;;;;;3.63;2.00;;;31.50;1.00;;;;;;5112108;28;20024;-67
2022/07/06 10:14:39;;;;;;;3.75;2.03;;;31.40;1.00;;;;;;5102965;28;20044;-67
2022/07/06 10:17:06;;;;;;;3.08;2.10;;;31.50;1.00;;;;;;5091635;27;20018;-67
2022/07/06 10:19:32;;;;;;;4.20;2.10;;;31.60;1.00;;;;;;5116385;27;20046;-68
2022/07/06 10:22:00;;;;;;;3.17;2.13;;;31.70;1.00;;;;;;5104505;28;20039;-66
2022/07/06 10:24:28;;;;;;;2.50;2.10;;;31.20;1.00;;;;;;5112126;28;20171;-67
2022/07/06 10:26:55;;;;;;;2.25;2.05;;;31.10;1.00;;;;;;5111842;28;20023;-67
2022/07/06 10:29:21;;;;;;;4.05;2.25;;;31.10;1.00;;;;;;5111774;28;20027;-67
2022/07/06 10:31:48;;;;;;;3.60;2.95;;;31.00;1.00;;;;;;5085971;28;20152;-65
2022/07/06 10:34:18;;;;;;;4.60;2.03;;;31.40;1.00;;;;;;5094180;28;20085;-66
2022/07/06 10:36:48;;;;;;;3.97;2.63;;;31.50;1.00;;;;;;5090192;28;20478;-67
2022/07/06 10:41:59;;;;;;;3.92;2.63;;;31.90;1.00;;;;;;5113154;28;20093;-66
2022/07/06 10:44:27;;;;;;;3.47;2.20;;;32.60;1.00;;;;;;5095095;28;20468;-66
2022/07/06 10:46:57;;;;;;;4.15;3.65;;;32.40;1.00;;;;;;5107825;28;20122;-67
2022/07/06 10:49:25;;;;;;;4.10;2.38;;;32.50;1.00;;;;;;5114718;27;20054;-67
2022/07/06 10:51:52;;;;;;;4.88;2.40;;;32.40;1.00;;;;;;5116330;28;20037;-67
2022/07/06 10:54:20;;;;;;;3.80;2.50;;;32.70;1.00;;;;;;5115453;28;20035;-67
2022/07/06 10:56:48;;;;;;;2.45;2.30;;;32.80;1.00;;;;;;5116941;28;20030;-68
2022/07/06 10:59:14;;;;;;;2.60;2.40;;;32.80;1.00;;;;;;5114867;27;20020;-67
2022/07/06 11:02:01;;;;;;;2.97;2.75;;;33.10;1.00;;;;;;5109149;28;20069;-66
2022/07/06 11:04:32;;;;;;;6.05;2.47;;;32.40;1.00;;;;;;5110385;27;20062;-67
2022/07/06 11:07:11;;;;;;;3.17;2.47;;;33.10;1.00;;;;;;5115646;28;20303;-67
2022/07/06 11:09:38;;;;;;;4.63;2.50;;;33.10;1.00;;;;;;5115080;28;20039;-67
2022/07/06 11:12:18;;;;;;;3.33;2.60;;;33.00;1.00;;;;;;5115764;28;20027;-67
2022/07/06 11:14:44;;;;;;;3.58;2.53;;;33.80;1.00;;;;;;5114499;27;20035;-66
2022/07/06 11:17:10;;;;;;;4.05;3.05;;;33.60;1.00;;;;;;5115238;28;20016;-67
2022/07/06 11:19:37;;;;;;;2.60;2.50;;;34.20;1.00;;;;;;5114895;28;20031;-67
2022/07/06 11:22:07;;;;;;;3.47;2.92;;;34.00;1.00;;;;;;5115368;28;20024;-67
2022/07/06 11:24:34;;;;;;;3.10;2.85;;;33.20;1.00;;;;;;5114391;28;20062;-67
2022/07/06 11:27:01;;;;;;;2.80;2.60;;;34.20;1.00;;;;;;5097538;28;20016;-67
2022/07/06 11:29:28;;;;;;;3.03;2.70;;;36.70;1.00;;;;;;5114940;27;20096;-67
2022/07/06 11:31:56;;;;;;;4.20;3.90;;;38.40;1.00;;;;;;5114500;28;20031;-67
2022/07/06 11:34:24;;;;;;;4.28;3.55;;;38.70;1.00;;;;;;5114835;27;20808;-67
2022/07/06 11:36:56;;;;;;;3.35;3.10;;;38.30;1.00;;;;;;5115924;28;20433;-67
2022/07/06 11:39:21;;;;;;;3.90;3.50;;;37.70;1.00;;;;;;5114846;28;20042;-67
2022/07/06 11:41:47;;;;;;;3.78;3.47;;;37.50;1.00;;;;;;5114619;27;20345;-67
2022/07/06 11:44:13;;;;;;;5.80;3.50;;;37.30;1.00;;;;;;5114975;27;20086;-67
2022/07/06 11:46:38;;;;;;;4.35;3.40;;;36.50;1.00;;;;;;5114698;28;20035;-67
2022/07/06 11:49:05;;;;;;;4.97;3.47;;;37.60;1.00;;;;;;5113570;28;20039;-67
2022/07/06 11:51:33;;;;;;;3.42;3.22;;;38.60;1.00;;;;;;5114771;28;20433;-67
2022/07/06 11:54:02;;;;;;;4.00;3.40;;;38.10;1.00;;;;;;5111718;28;20028;-68
2022/07/06 11:56:29;;;;;;;3.15;2.95;;;40.00;1.00;;;;;;5114507;28;20503;-66
2022/07/06 11:58:57;;;;;;;7.18;4.10;;;40.30;1.00;;;;;;5114407;28;20473;-67
2022/07/06 12:01:27;;;;;;;5.30;3.20;;;41.80;1.00;;;;;;5113757;28;20036;-66
2022/07/06 12:03:58;;;;;;;4.32;3.40;;;42.10;1.00;;;;;;5109439;28;20482;-66
2022/07/06 12:06:25;;;;;;;3.88;3.58;;;41.90;1.00;;;;;;5110233;28;20046;-66
2022/07/06 12:08:55;;;;;;;3.70;3.50;;;40.90;1.00;;;;;;5113190;27;20326;-66
2022/07/06 12:11:24;;;;;;;4.57;3.90;;;40.30;1.00;;;;;;5112336;28;20138;-67
2022/07/06 12:13:51;;;;;;;4.55;3.90;;;39.60;1.00;;;;;;5112586;28;20101;-67
2022/07/06 12:16:17;;;;;;;3.85;3.50;;;40.30;1.00;;;;;;5094766;28;20027;-67
2022/07/06 12:18:45;;;;;;;4.60;4.20;;;40.00;1.00;;;;;;5115392;28;20047;-67
2022/07/06 12:21:16;;;;;;;4.43;3.97;;;39.50;1.00;;;;;;5113098;27;20028;-66
2022/07/06 12:23:48;;;;;;;4.72;3.90;;;39.10;1.00;;;;;;5109732;28;20231;-67
2022/07/06 12:26:17;;;;;;;4.80;4.40;;;38.60;1.00;;;;;;5129101;27;20024;-67
2022/07/06 12:28:44;;;;;;;5.78;5.25;;;38.70;1.00;;;;;;5125427;27;20024;-67
2022/07/06 12:31:11;;;;;;;4.50;4.07;;;38.40;1.00;;;;;;5113946;27;20038;-66
2022/07/06 12:33:37;;;;;;;4.70;4.40;;;38.50;1.00;;;;;;5113504;28;20024;-67
2022/07/06 12:36:14;;;;;;;5.28;4.90;;;38.70;1.00;;;;;;5114189;28;20101;-68
2022/07/06 12:38:47;;;;;;;4.95;4.63;;;38.10;1.00;;;;;;5114125;28;20046;-68
2022/07/06 12:41:34;;;;;;;4.20;3.90;;;38.50;1.00;;;;;;5114195;28;20081;-67
2022/07/06 12:44:06;;;;;;;4.00;3.70;;;39.30;1.00;;;;;;5102469;28;20055;-67
2022/07/06 12:46:33;;;;;;;4.45;4.07;;;39.40;1.00;;;;;;5113373;27;20028;-67
2022/07/06 12:49:01;;;;;;;4.75;4.35;;;39.20;1.00;;;;;;5114351;28;20078;-67
2022/07/06 12:51:27;;;;;;;5.05;4.60;;;40.00;1.00;;;;;;5112852;27;20028;-67
2022/07/06 12:54:12;;;;;;;6.40;5.55;;;41.00;1.00;;;;;;5113854;28;20020;-67
2022/07/06 12:57:05;;;;;;;4.53;4.22;;;41.80;1.00;;;;;;5113249;28;20039;-67
2022/07/06 12:59:31;;;;;;;;;;;41.60;1.00;;;;;;5106696;28;20489;-67
2022/07/06 13:01:57;;;;;;;4.55;4.30;;;42.60;1.00;;;;;;5112360;27;20007;-67